Time;durP1;ratioP1;P1;durP2;ratioP2;P2;SDS_P1;SDS_P2;PMS_P1;PMS_P2;Temp;Humidity;BMP_temperature;BMP_pressure;BME280_temperature;BME280_humidity;BME280_pressure;Samples;Min_cycle;Max_cycle;Signal;HPM_P1;HPM_P2
2022/05/06 00:01:49;;;;;;;39.70;19.60;;;11.60;99.90;;;;;;4219834;28;20210;-92
2022/05/06 00:03:50;;;;;;;54.08;24.73;;;11.50;99.90;;;;;;4203325;28;20245;-90
2022/05/06 00:05:51;;;;;;;56.50;26.52;;;11.50;99.90;;;;;;4186844;28;20202;-90
2022/05/06 00:07:53;;;;;;;60.95;28.58;;;11.40;99.90;;;;;;4186333;28;20310;-92
2022/05/06 00:09:54;;;;;;;71.50;29.85;;;11.50;99.90;;;;;;4219316;28;20201;-90
2022/05/06 00:11:54;;;;;;;75.05;30.73;;;11.70;99.90;;;;;;4186259;28;20265;-91
2022/05/06 00:13:55;;;;;;;67.25;30.10;;;11.70;99.90;;;;;;4186834;28;20172;-91
2022/05/06 00:15:56;;;;;;;65.75;28.55;;;11.80;99.90;;;;;;4202805;28;20171;-91
2022/05/06 00:17:56;;;;;;;82.47;31.95;;;11.90;99.90;;;;;;4186927;28;20206;-95
2022/05/06 00:19:57;;;;;;;77.40;32.50;;;12.00;99.90;;;;;;4186581;28;20198;-95
2022/05/06 00:21:58;;;;;;;75.03;30.95;;;11.90;99.90;;;;;;4203169;28;20627;-91
2022/05/06 00:23:59;;;;;;;83.78;30.42;;;12.00;99.90;;;;;;4187078;28;20616;-93
2022/05/06 00:26:00;;;;;;;70.93;31.60;;;12.30;99.90;;;;;;4204214;28;20186;-91
2022/05/06 00:28:01;;;;;;;122.82;31.73;;;12.30;99.90;;;;;;4203929;28;20215;-93
2022/05/06 00:30:02;;;;;;;71.90;32.17;;;12.20;99.90;;;;;;4186868;28;20191;-92
2022/05/06 00:32:03;;;;;;;77.20;32.65;;;12.20;99.90;;;;;;4183824;28;20203;-91
2022/05/06 00:34:04;;;;;;;71.72;32.58;;;12.30;99.90;;;;;;4183721;28;20180;-91
2022/05/06 00:36:05;;;;;;;76.03;32.47;;;12.40;99.90;;;;;;4183590;28;20167;-91
2022/05/06 00:38:06;;;;;;;83.97;30.92;;;12.30;99.90;;;;;;4199711;28;20179;-91
2022/05/06 00:40:08;;;;;;;131.02;32.95;;;12.20;99.90;;;;;;4183410;28;20595;-93
2022/05/06 00:42:09;;;;;;;89.93;32.55;;;12.30;99.90;;;;;;4183599;28;20515;-91
2022/05/06 00:44:10;;;;;;;121.47;32.60;;;12.30;99.90;;;;;;4200103;28;20223;-92
2022/05/06 00:46:12;;;;;;;141.55;30.92;;;12.30;99.90;;;;;;4199963;28;20250;-94
2022/05/06 00:48:14;;;;;;;92.20;31.90;;;12.30;99.90;;;;;;4215970;28;20308;-95
2022/05/06 00:50:16;;;;;;;75.28;30.80;;;12.20;99.90;;;;;;4199749;28;20207;-92
2022/05/06 00:52:17;;;;;;;126.78;31.65;;;12.10;99.90;;;;;;4199767;28;20193;-96
2022/05/06 00:54:21;;;;;;;158.75;31.10;;;12.30;99.90;;;;;;4183241;28;20168;-91
2022/05/06 00:56:24;;;;;;;141.52;29.27;;;12.60;99.90;;;;;;4183204;28;20178;-91
2022/05/06 00:58:30;;;;;;;152.65;28.30;;;13.30;99.90;;;;;;4183037;28;20238;-91
2022/05/06 01:00:30;;;;;;;227.60;24.08;;;13.50;99.90;;;;;;4199801;28;20261;-91
2022/05/06 01:02:32;;;;;;;136.90;25.13;;;13.30;99.90;;;;;;4199585;28;20681;-92
2022/05/06 01:04:33;;;;;;;178.13;22.95;;;13.00;99.90;;;;;;4199495;28;20167;-93
2022/05/06 01:06:35;;;;;;;172.30;24.92;;;13.00;99.90;;;;;;4199458;28;20175;-91
2022/05/06 01:08:37;;;;;;;201.27;26.10;;;13.00;99.90;;;;;;4199072;28;20213;-92
2022/05/06 01:10:41;;;;;;;250.30;26.20;;;13.00;99.90;;;;;;4182538;28;20168;-90
2022/05/06 01:12:42;;;;;;;250.30;25.93;;;12.90;99.90;;;;;;4199248;28;20167;-89
2022/05/06 01:14:48;;;;;;;216.50;25.70;;;13.00;99.90;;;;;;4183340;28;20179;-92
2022/05/06 01:16:56;;;;;;;473.07;26.57;;;12.70;99.90;;;;;;4183381;28;20728;-93
2022/05/06 01:18:56;;;;;;;285.67;27.37;;;12.30;99.90;;;;;;4216393;28;20190;-93
2022/05/06 01:21:00;;;;;;;184.47;26.70;;;11.70;99.90;;;;;;4182896;28;20171;-91
2022/05/06 01:23:01;;;;;;;115.13;25.58;;;11.40;99.90;;;;;;4199714;28;20258;-91
2022/05/06 01:25:02;;;;;;;230.43;22.40;;;11.30;99.90;;;;;;4199400;28;20701;-93
2022/05/06 01:27:14;;;;;;;282.80;24.30;;;11.40;99.90;;;;;;4182717;28;20172;-94
2022/05/06 01:29:16;;;;;;;167.82;23.67;;;12.10;99.90;;;;;;4182491;28;20215;-91
2022/05/06 01:31:24;;;;;;;145.52;26.13;;;12.00;99.90;;;;;;4198936;28;20178;-91
2022/05/06 01:33:26;;;;;;;206.82;24.13;;;12.30;99.90;;;;;;4216062;28;20206;-92
2022/05/06 01:35:29;;;;;;;129.82;24.50;;;12.20;99.90;;;;;;4199088;28;20171;-93
2022/05/06 01:37:34;;;;;;;353.30;24.00;;;12.10;99.90;;;;;;4216153;28;20177;-91
2022/05/06 01:39:37;;;;;;;296.35;22.02;;;11.90;99.90;;;;;;4198900;28;20551;-95
2022/05/06 01:41:43;;;;;;;79.35;22.52;;;11.80;99.90;;;;;;4199269;28;20163;-94
2022/05/06 01:43:50;;;;;;;252.63;24.75;;;12.00;99.90;;;;;;4197820;28;20247;-92
2022/05/06 01:45:54;;;;;;;116.90;25.25;;;12.10;99.90;;;;;;4199140;28;20182;-91
2022/05/06 01:47:56;;;;;;;150.57;25.90;;;11.80;99.90;;;;;;4215541;28;20202;-91
2022/05/06 01:50:01;;;;;;;162.68;26.38;;;11.60;99.90;;;;;;4199050;28;20191;-94
2022/05/06 01:52:07;;;;;;;229.90;26.70;;;11.60;99.90;;;;;;4215853;28;20170;-91
2022/05/06 01:54:09;;;;;;;326.90;25.70;;;11.30;99.90;;;;;;4215267;28;20170;-90
2022/05/06 01:56:12;;;;;;;240.25;24.75;;;11.20;99.90;;;;;;4215356;28;20261;-90
2022/05/06 01:58:17;;;;;;;129.00;26.40;;;11.00;99.90;;;;;;4215093;28;20635;-89
2022/05/06 02:00:24;;;;;;;70.57;25.60;;;11.10;99.90;;;;;;4199318;28;20182;-96
2022/05/06 02:02:25;;;;;;;87.50;25.95;;;11.20;99.90;;;;;;4182448;28;20532;-91
2022/05/06 02:06:46;;;;;;;97.60;24.23;;;11.40;99.90;;;;;;4198853;28;20178;-92
2022/05/06 02:08:54;;;;;;;136.57;24.50;;;11.50;99.90;;;;;;4214629;28;20212;-94
2022/05/06 02:11:02;;;;;;;60.33;24.38;;;11.60;99.90;;;;;;4198637;28;20213;-91
2022/05/06 02:13:04;;;;;;;63.42;23.25;;;11.70;99.90;;;;;;4181828;28;20168;-90
2022/05/06 02:15:10;;;;;;;74.40;24.33;;;11.80;99.90;;;;;;4198816;28;20265;-93
2022/05/06 02:17:25;;;;;;;159.75;22.92;;;11.70;99.90;;;;;;4200404;28;20175;-91
2022/05/06 02:19:42;;;;;;;138.40;23.25;;;11.80;99.90;;;;;;4200088;28;20202;-90
2022/05/06 02:21:52;;;;;;;157.02;21.70;;;11.60;99.90;;;;;;4182694;28;20237;-93
2022/05/06 02:24:15;;;;;;;123.70;23.60;;;11.70;99.90;;;;;;4198453;28;20171;-91
2022/05/06 02:26:34;;;;;;;100.63;25.00;;;11.80;99.90;;;;;;4198830;28;20205;-91
2022/05/06 02:28:39;;;;;;;123.32;23.40;;;11.90;99.90;;;;;;4199294;28;20211;-90
2022/05/06 02:33:15;;;;;;;171.65;24.15;;;11.60;99.90;;;;;;4198054;28;20228;-91
2022/05/06 02:35:21;;;;;;;140.18;24.38;;;11.70;99.90;;;;;;4182347;28;20172;-95
2022/05/06 02:37:22;;;;;;;165.25;25.10;;;11.70;99.90;;;;;;4181546;28;20187;-93
2022/05/06 02:39:26;;;;;;;108.03;24.50;;;11.60;99.90;;;;;;4181884;28;20233;-91
2022/05/06 02:41:36;;;;;;;126.32;21.88;;;11.60;99.90;;;;;;4214809;28;20245;-93
2022/05/06 02:43:37;;;;;;;76.43;22.75;;;11.70;99.90;;;;;;4214666;28;20224;-96
2022/05/06 02:45:38;;;;;;;126.20;23.67;;;11.90;99.90;;;;;;4182130;28;20175;-92
2022/05/06 02:47:39;;;;;;;106.28;24.75;;;12.00;99.90;;;;;;4197939;28;20717;-91
2022/05/06 02:49:41;;;;;;;108.78;25.40;;;11.80;99.90;;;;;;4214646;28;20201;-92
2022/05/06 02:51:44;;;;;;;122.65;25.05;;;11.70;99.90;;;;;;4181459;28;20179;-91
2022/05/06 02:53:45;;;;;;;142.13;25.95;;;11.70;99.90;;;;;;4197953;28;20194;-91
2022/05/06 02:55:48;;;;;;;92.25;25.50;;;11.50;99.90;;;;;;4181388;28;20191;-95
2022/05/06 02:57:50;;;;;;;96.45;26.67;;;11.70;99.90;;;;;;4198090;28;20744;-92
2022/05/06 02:59:51;;;;;;;118.60;25.90;;;11.80;99.90;;;;;;4197727;28;20187;-90
2022/05/06 03:01:55;;;;;;;203.55;26.10;;;11.90;99.90;;;;;;4181829;28;20179;-91
2022/05/06 03:03:56;;;;;;;150.90;26.45;;;11.90;99.90;;;;;;4181268;28;20187;-94
2022/05/06 03:05:58;;;;;;;184.75;26.17;;;11.70;99.90;;;;;;4182145;28;20230;-96
2022/05/06 03:07:59;;;;;;;233.10;24.92;;;11.60;99.90;;;;;;4198085;28;20207;-92
2022/05/06 03:10:04;;;;;;;182.10;26.33;;;11.50;99.90;;;;;;4198459;28;20167;-92
2022/05/06 03:12:08;;;;;;;122.97;26.23;;;11.60;99.90;;;;;;4198356;28;20171;-92
2022/05/06 03:14:12;;;;;;;185.48;24.85;;;11.70;99.90;;;;;;4214486;28;20197;-91
2022/05/06 03:16:22;;;;;;;167.55;22.42;;;11.70;99.90;;;;;;4182346;28;20175;-92
2022/05/06 03:18:23;;;;;;;329.23;24.42;;;11.60;99.90;;;;;;4181027;28;20647;-90
2022/05/06 03:20:24;;;;;;;225.50;24.10;;;11.70;99.90;;;;;;4197693;28;20574;-92
2022/05/06 03:22:25;;;;;;;178.18;24.38;;;11.80;99.90;;;;;;4197826;28;20238;-91
2022/05/06 03:24:27;;;;;;;75.13;25.60;;;11.80;99.90;;;;;;4181018;28;20174;-92
2022/05/06 03:26:29;;;;;;;123.88;26.30;;;11.80;99.90;;;;;;4197575;28;20190;-91
2022/05/06 03:28:30;;;;;;;222.07;25.27;;;11.90;99.90;;;;;;4214211;28;20221;-92
2022/05/06 03:30:37;;;;;;;162.88;26.27;;;11.70;99.90;;;;;;4197992;28;20171;-90
2022/05/06 03:33:08;;;;;;;161.10;25.35;;;11.70;99.90;;;;;;4197561;28;20186;-91
2022/05/06 03:35:11;;;;;;;168.55;25.35;;;11.70;99.90;;;;;;4198057;28;20179;-92
2022/05/06 03:37:16;;;;;;;158.95;25.77;;;11.60;99.90;;;;;;4181543;28;20178;-91
2022/05/06 03:39:17;;;;;;;79.80;27.58;;;11.70;99.90;;;;;;4197473;28;20197;-92
2022/05/06 03:41:25;;;;;;;72.55;26.48;;;11.60;99.90;;;;;;4197534;28;20181;-93
2022/05/06 03:43:29;;;;;;;264.05;28.52;;;11.70;99.90;;;;;;4197611;28;20171;-91
2022/05/06 03:45:39;;;;;;;117.05;24.00;;;11.70;99.90;;;;;;4197329;28;20159;-93
2022/05/06 03:47:41;;;;;;;111.57;26.90;;;11.70;99.90;;;;;;4180423;28;20171;-94
2022/05/06 03:49:42;;;;;;;212.00;28.25;;;11.70;99.90;;;;;;4197284;28;20233;-94
2022/05/06 03:51:47;;;;;;;130.90;26.60;;;12.20;99.90;;;;;;4181174;28;20172;-93
2022/05/06 03:53:55;;;;;;;150.65;27.02;;;11.90;99.90;;;;;;4181283;28;20171;-93
2022/05/06 03:55:57;;;;;;;68.65;27.20;;;11.80;99.90;;;;;;4214043;28;20174;-92
2022/05/06 03:58:01;;;;;;;222.85;26.52;;;11.80;99.90;;;;;;4181161;28;20206;-92
2022/05/06 04:00:04;;;;;;;241.95;28.63;;;11.80;99.90;;;;;;4197303;28;20183;-93
2022/05/06 04:02:16;;;;;;;76.13;28.48;;;12.00;99.90;;;;;;4212717;28;20196;-92
2022/05/06 04:04:17;;;;;;;70.25;26.77;;;12.00;99.90;;;;;;4197528;28;20261;-91
2022/05/06 04:06:19;;;;;;;91.97;27.45;;;12.00;99.90;;;;;;4180867;28;20175;-92
2022/05/06 04:08:25;;;;;;;80.88;28.55;;;12.00;99.90;;;;;;4184404;28;20207;-91
2022/05/06 04:10:27;;;;;;;159.38;27.45;;;11.90;99.90;;;;;;4184028;28;20644;-90
2022/05/06 04:12:29;;;;;;;177.25;27.23;;;12.20;99.90;;;;;;4183800;28;20648;-94
2022/05/06 04:14:36;;;;;;;204.77;28.77;;;12.40;99.90;;;;;;4184591;28;20162;-91
2022/05/06 04:16:38;;;;;;;265.55;29.25;;;12.60;99.90;;;;;;4183773;28;20578;-91
2022/05/06 04:18:45;;;;;;;140.07;29.17;;;12.30;99.90;;;;;;4216095;28;20321;-92
2022/05/06 04:25:28;;;;;;;298.42;27.42;;;12.30;99.90;;;;;;4200263;28;20187;-91
2022/05/06 04:27:31;;;;;;;209.07;29.98;;;12.80;99.90;;;;;;4183502;28;20191;-90
2022/05/06 04:29:34;;;;;;;222.18;27.60;;;12.80;99.90;;;;;;4183474;28;20211;-92
2022/05/06 04:31:36;;;;;;;133.95;29.17;;;12.40;99.90;;;;;;4183514;28;20516;-93
2022/05/06 04:33:43;;;;;;;168.27;27.63;;;12.10;99.90;;;;;;4184185;28;20180;-91
2022/05/06 04:35:54;;;;;;;125.22;27.23;;;12.10;99.90;;;;;;4184266;28;20163;-91
2022/05/06 04:37:59;;;;;;;102.60;31.13;;;12.00;99.90;;;;;;4199905;28;20186;-90
2022/05/06 04:40:01;;;;;;;268.35;35.35;;;12.10;99.90;;;;;;4216559;28;20198;-91
2022/05/06 04:42:02;;;;;;;332.55;28.73;;;12.10;99.90;;;;;;4199764;28;20768;-96
2022/05/06 04:44:07;;;;;;;203.38;25.23;;;11.70;99.90;;;;;;4184310;28;20183;-91
2022/05/06 04:46:10;;;;;;;270.75;26.67;;;11.70;99.90;;;;;;4200240;28;20232;-93
2022/05/06 04:48:12;;;;;;;173.20;27.30;;;11.40;99.90;;;;;;4216128;28;20206;-91
2022/05/06 04:50:16;;;;;;;144.20;26.92;;;11.40;99.90;;;;;;4183351;28;20168;-90
2022/05/06 04:52:17;;;;;;;220.70;27.23;;;11.70;99.90;;;;;;4216517;28;20209;-92
2022/05/06 04:54:18;;;;;;;93.90;26.50;;;12.20;99.90;;;;;;4199558;28;20233;-92
2022/05/06 04:56:22;;;;;;;221.65;26.17;;;12.40;99.90;;;;;;4183239;28;20172;-91
2022/05/06 04:58:23;;;;;;;352.55;26.80;;;12.80;99.90;;;;;;4216361;28;20197;-92
2022/05/06 05:00:24;;;;;;;295.10;27.10;;;12.60;99.90;;;;;;4182916;28;20203;-91
2022/05/06 05:02:27;;;;;;;331.20;27.65;;;12.10;99.90;;;;;;4199564;28;20508;-91
2022/05/06 05:04:29;;;;;;;163.13;26.98;;;11.90;99.90;;;;;;4199735;28;20174;-92
2022/05/06 05:06:37;;;;;;;101.10;25.45;;;11.90;99.90;;;;;;4200558;28;20208;-92
2022/05/06 05:08:41;;;;;;;101.68;27.27;;;12.00;99.90;;;;;;4183692;28;20302;-96
2022/05/06 05:10:44;;;;;;;121.03;27.60;;;12.00;99.90;;;;;;4200281;28;20170;-93
2022/05/06 05:12:44;;;;;;;179.98;30.08;;;12.10;99.90;;;;;;4182975;28;20280;-92
2022/05/06 05:14:45;;;;;;;163.90;27.42;;;12.20;99.90;;;;;;4200223;28;20190;-92
2022/05/06 05:16:50;;;;;;;207.00;26.98;;;12.40;99.90;;;;;;4183492;28;20167;-89
2022/05/06 05:18:53;;;;;;;299.80;28.10;;;12.50;99.90;;;;;;4199176;28;20197;-91
2022/05/06 05:20:54;;;;;;;254.15;28.08;;;12.20;99.90;;;;;;4182944;28;20168;-91
2022/05/06 05:22:55;;;;;;;221.98;27.45;;;12.20;99.90;;;;;;4182421;28;20229;-92
2022/05/06 05:24:56;;;;;;;193.70;26.52;;;12.10;99.90;;;;;;4215939;28;20162;-91
2022/05/06 05:26:58;;;;;;;154.23;28.13;;;12.30;99.90;;;;;;4199181;28;20269;-91
2022/05/06 05:28:59;;;;;;;199.25;26.33;;;12.40;99.90;;;;;;4182391;28;20297;-91
2022/05/06 05:31:01;;;;;;;206.40;26.42;;;12.20;99.90;;;;;;4182607;28;20175;-91
2022/05/06 05:33:04;;;;;;;198.48;25.67;;;12.10;99.90;;;;;;4215518;28;20174;-90
2022/05/06 05:35:07;;;;;;;90.82;27.70;;;11.80;99.90;;;;;;4199100;28;20186;-92
2022/05/06 05:37:11;;;;;;;95.60;28.23;;;12.00;99.90;;;;;;4182898;28;20195;-90
2022/05/06 05:39:12;;;;;;;179.85;25.73;;;12.10;99.90;;;;;;4182303;28;20223;-88
2022/05/06 05:41:14;;;;;;;99.55;26.92;;;12.20;99.90;;;;;;4182504;28;20175;-91
2022/05/06 05:50:19;;;;;;;242.35;24.83;;;12.40;99.90;;;;;;4199043;28;20186;-91
2022/05/06 05:52:20;;;;;;;130.45;24.58;;;12.50;99.90;;;;;;4182267;28;20175;-91
2022/05/06 05:54:22;;;;;;;114.75;23.90;;;12.50;99.90;;;;;;4182848;28;20178;-91
2022/05/06 05:56:24;;;;;;;150.65;24.40;;;12.40;99.90;;;;;;4182170;28;20721;-90
2022/05/06 05:58:26;;;;;;;93.00;25.55;;;12.60;99.90;;;;;;4198459;28;20190;-96
2022/05/06 06:00:30;;;;;;;76.82;25.27;;;12.70;99.90;;;;;;4215548;28;20230;-91
2022/05/06 06:02:35;;;;;;;72.00;23.98;;;12.60;99.90;;;;;;4182595;28;20182;-91
2022/05/06 06:04:36;;;;;;;87.90;24.75;;;12.70;99.90;;;;;;4215344;28;20233;-91
2022/05/06 06:06:38;;;;;;;69.38;24.23;;;12.60;99.90;;;;;;4198618;28;20261;-92
2022/05/06 06:08:39;;;;;;;63.33;24.17;;;12.80;99.90;;;;;;4198466;28;20211;-96
2022/05/06 06:10:41;;;;;;;69.97;24.13;;;12.90;99.90;;;;;;4215752;28;20166;-91
2022/05/06 06:12:44;;;;;;;97.30;22.88;;;13.00;99.90;;;;;;4198558;28;20702;-92
2022/05/06 06:14:46;;;;;;;70.63;22.13;;;13.10;99.90;;;;;;4182210;28;20250;-96
2022/05/06 06:16:48;;;;;;;52.70;21.73;;;13.30;99.90;;;;;;4182539;28;20552;-92
2022/05/06 06:18:49;;;;;;;75.75;22.48;;;13.30;99.90;;;;;;4215572;28;20271;-91
2022/05/06 06:20:55;;;;;;;60.45;23.98;;;13.40;99.90;;;;;;4182047;28;20229;-91
2022/05/06 06:22:56;;;;;;;66.97;22.92;;;13.50;99.90;;;;;;4198507;28;20201;-94
2022/05/06 06:24:56;;;;;;;53.13;20.77;;;13.40;99.90;;;;;;4182104;28;20175;-92
2022/05/06 06:26:58;;;;;;;60.40;21.90;;;13.30;99.90;;;;;;4181805;28;20160;-91
2022/05/06 06:29:03;;;;;;;63.00;19.23;;;13.30;99.90;;;;;;4197686;28;20246;-91
2022/05/06 06:31:03;;;;;;;98.55;21.20;;;13.30;99.90;;;;;;4181683;28;20223;-92
2022/05/06 06:33:05;;;;;;;64.10;21.15;;;13.30;99.90;;;;;;4182128;28;20219;-93
2022/05/06 06:35:06;;;;;;;74.90;21.70;;;13.10;99.90;;;;;;4198681;28;20569;-94
2022/05/06 06:37:15;;;;;;;47.75;19.40;;;12.90;99.90;;;;;;4199659;28;20200;-91
2022/05/06 06:39:20;;;;;;;47.50;19.40;;;12.80;99.90;;;;;;4182260;28;20195;-88
2022/05/06 06:41:24;;;;;;;61.15;21.33;;;12.60;99.90;;;;;;4197959;28;20162;-92
2022/05/06 06:43:25;;;;;;;80.28;22.88;;;12.70;99.90;;;;;;4181566;28;20271;-91
2022/05/06 06:45:37;;;;;;;62.67;22.02;;;12.80;99.90;;;;;;4199802;28;20205;-92
2022/05/06 06:48:09;;;;;;;97.80;24.30;;;12.80;99.90;;;;;;4199122;28;20199;-93
2022/05/06 06:50:19;;;;;;;65.43;24.85;;;12.70;99.90;;;;;;4184387;28;20167;-92
2022/05/06 06:52:39;;;;;;;63.75;22.55;;;12.60;99.90;;;;;;4215687;28;20243;-92
2022/05/06 06:54:39;;;;;;;67.85;23.95;;;12.60;99.90;;;;;;4199919;28;20170;-91
2022/05/06 06:56:40;;;;;;;66.55;22.58;;;12.50;99.90;;;;;;4181877;28;20596;-92
2022/05/06 06:58:41;;;;;;;65.43;24.08;;;12.50;99.90;;;;;;4183743;28;20699;-91
2022/05/06 07:00:42;;;;;;;69.03;22.88;;;12.60;99.90;;;;;;4184293;28;20738;-91
2022/05/06 07:02:45;;;;;;;100.65;23.88;;;12.90;99.90;;;;;;4215702;28;20178;-92
2022/05/06 07:04:45;;;;;;;80.68;25.23;;;13.10;99.90;;;;;;4200285;28;20236;-91
2022/05/06 07:13:44;;;;;;;75.18;27.02;;;13.20;99.90;;;;;;4200524;28;20186;-92
2022/05/06 07:15:46;;;;;;;85.57;28.23;;;13.60;99.90;;;;;;4218070;28;20166;-91
2022/05/06 07:17:47;;;;;;;84.95;27.63;;;13.50;99.90;;;;;;4199737;28;20297;-92
2022/05/06 07:19:48;;;;;;;92.70;28.92;;;13.30;99.90;;;;;;4202334;28;20195;-91
2022/05/06 07:21:52;;;;;;;95.45;28.90;;;13.30;99.90;;;;;;4186092;28;20171;-91
2022/05/06 07:23:52;;;;;;;82.70;27.77;;;13.50;99.90;;;;;;4204454;28;20178;-91
2022/05/06 07:25:53;;;;;;;84.90;27.45;;;13.50;99.90;;;;;;4201457;28;20182;-90
2022/05/06 07:27:54;;;;;;;84.18;28.55;;;13.60;99.90;;;;;;4201629;28;20635;-93
2022/05/06 07:29:55;;;;;;;75.05;26.02;;;13.60;99.90;;;;;;4201613;28;20732;-91
2022/05/06 07:31:55;;;;;;;72.32;26.30;;;13.70;99.90;;;;;;4185135;28;20168;-90
2022/05/06 07:33:56;;;;;;;78.50;26.30;;;13.20;99.90;;;;;;4184346;28;20253;-91
2022/05/06 07:35:57;;;;;;;69.07;25.02;;;13.00;99.90;;;;;;4184316;28;20625;-91
2022/05/06 07:37:57;;;;;;;68.55;23.85;;;13.20;99.90;;;;;;4182040;28;20179;-91
2022/05/06 07:39:59;;;;;;;66.03;24.75;;;13.50;99.90;;;;;;4201471;28;20223;-90
2022/05/06 07:42:00;;;;;;;67.95;24.17;;;13.80;99.90;;;;;;4202773;28;20173;-92
2022/05/06 07:44:01;;;;;;;74.72;26.02;;;14.00;99.90;;;;;;4188314;28;20175;-90
2022/05/06 07:46:02;;;;;;;72.28;25.85;;;14.30;99.90;;;;;;4186159;28;20327;-92
2022/05/06 07:48:08;;;;;;;66.20;25.00;;;14.60;99.90;;;;;;4187322;28;20206;-91
2022/05/06 07:50:09;;;;;;;75.07;26.25;;;14.50;99.90;;;;;;4203058;28;20225;-92
2022/05/06 07:52:11;;;;;;;71.47;24.90;;;14.50;99.90;;;;;;4188788;28;20170;-91
2022/05/06 07:54:12;;;;;;;66.53;25.95;;;14.70;99.90;;;;;;4187770;28;20183;-91
2022/05/06 07:56:13;;;;;;;67.43;25.92;;;14.30;99.90;;;;;;4201939;28;20169;-91
2022/05/06 07:58:13;;;;;;;68.43;27.15;;;14.20;99.90;;;;;;4185999;28;20269;-90
2022/05/06 08:00:15;;;;;;;66.03;25.55;;;13.90;99.90;;;;;;4185578;28;20195;-90
2022/05/06 08:04:37;;;;;;;76.70;27.05;;;14.50;99.90;;;;;;4218937;28;20174;-90
2022/05/06 08:06:38;;;;;;;74.97;27.80;;;14.60;99.90;;;;;;4203026;28;20205;-94
2022/05/06 08:08:39;;;;;;;69.57;26.92;;;14.70;99.90;;;;;;4204020;28;20210;-91
2022/05/06 08:10:40;;;;;;;71.43;27.63;;;15.00;99.90;;;;;;4187699;28;20187;-95
2022/05/06 08:12:41;;;;;;;64.38;26.17;;;15.20;99.90;;;;;;4206252;28;20166;-91
2022/05/06 08:14:42;;;;;;;74.15;28.58;;;15.50;99.90;;;;;;4186344;28;20190;-90
2022/05/06 08:16:44;;;;;;;74.38;28.20;;;15.70;99.90;;;;;;4185664;28;20202;-95
2022/05/06 08:18:45;;;;;;;73.63;28.17;;;15.60;99.90;;;;;;4202673;28;20201;-90
2022/05/06 08:20:47;;;;;;;65.82;27.38;;;15.40;99.90;;;;;;4186575;28;20187;-90
2022/05/06 08:22:47;;;;;;;62.25;25.10;;;14.80;99.90;;;;;;4184268;28;20267;-93
2022/05/06 08:24:48;;;;;;;66.55;27.52;;;14.30;99.90;;;;;;4201346;28;20170;-94
2022/05/06 08:26:49;;;;;;;69.30;26.20;;;15.20;99.90;;;;;;4184504;28;20178;-90
2022/05/06 08:28:50;;;;;;;66.10;26.38;;;15.60;99.90;;;;;;4202685;28;20223;-90
2022/05/06 08:30:52;;;;;;;64.55;26.20;;;16.40;99.90;;;;;;4188177;28;20678;-94
2022/05/06 08:32:52;;;;;;;64.60;25.42;;;17.50;99.90;;;;;;4187443;28;20171;-91
2022/05/06 08:34:53;;;;;;;57.10;25.98;;;17.90;99.90;;;;;;4187685;28;20240;-95
2022/05/06 08:36:54;;;;;;;56.05;25.42;;;18.30;99.90;;;;;;4187300;28;20233;-92
2022/05/06 08:38:55;;;;;;;54.97;25.95;;;19.00;99.90;;;;;;4221186;28;20240;-90
2022/05/06 08:40:57;;;;;;;54.03;24.77;;;18.60;99.90;;;;;;4186979;28;20160;-90
2022/05/06 08:42:58;;;;;;;54.40;24.70;;;18.90;99.90;;;;;;4186776;28;20272;-90
2022/05/06 08:52:03;;;;;;;58.10;25.60;;;19.20;99.90;;;;;;4204449;28;20650;-91
2022/05/06 08:54:04;;;;;;;57.10;26.35;;;19.00;99.90;;;;;;4207407;28;20175;-90
2022/05/06 08:56:05;;;;;;;48.55;24.75;;;19.30;99.90;;;;;;4203171;28;20167;-93
2022/05/06 08:58:06;;;;;;;54.58;24.33;;;19.80;99.90;;;;;;4222286;28;20273;-91
2022/05/06 09:00:07;;;;;;;52.33;23.85;;;20.60;99.90;;;;;;4207420;28;20173;-91
2022/05/06 09:02:09;;;;;;;53.13;24.00;;;20.40;99.90;;;;;;4220476;28;20678;-92
2022/05/06 09:04:10;;;;;;;52.10;23.60;;;21.30;99.90;;;;;;4192924;28;20233;-91
2022/05/06 09:06:24;;;;;;;48.03;23.35;;;20.70;99.90;;;;;;4189359;28;20171;-90
2022/05/06 09:08:41;;;;;;;53.15;24.15;;;21.20;99.90;;;;;;4209283;28;20210;-89
2022/05/06 09:10:42;;;;;;;47.05;22.95;;;21.40;99.90;;;;;;4221405;28;20186;-93
2022/05/06 09:12:45;;;;;;;49.40;23.83;;;21.20;99.90;;;;;;4203168;28;20171;-91
2022/05/06 09:17:21;;;;;;;47.65;22.90;;;21.90;99.90;;;;;;4204957;28;20531;-90
2022/05/06 09:19:27;;;;;;;45.80;23.58;;;22.60;99.90;;;;;;4206119;28;20692;-88
2022/05/06 09:21:28;;;;;;;48.00;23.40;;;23.30;99.90;;;;;;4202998;28;20174;-88
2022/05/06 09:23:29;;;;;;;42.17;21.98;;;24.00;99.90;;;;;;4203827;28;20166;-89
2022/05/06 09:25:38;;;;;;;44.90;23.13;;;23.60;99.90;;;;;;4201801;28;20198;-88
2022/05/06 09:27:39;;;;;;;45.55;21.70;;;24.50;99.90;;;;;;4184877;28;20171;-88
2022/05/06 09:29:48;;;;;;;34.72;19.48;;;25.60;99.90;;;;;;4202864;28;20234;-89
2022/05/06 09:31:49;;;;;;;35.63;20.25;;;25.60;99.90;;;;;;4184615;28;20167;-89
2022/05/06 09:33:50;;;;;;;40.05;20.10;;;26.60;99.90;;;;;;4185077;28;20175;-88
2022/05/06 09:35:51;;;;;;;40.22;20.10;;;25.90;99.90;;;;;;4185077;28;20191;-88
2022/05/06 09:37:52;;;;;;;42.22;21.08;;;25.90;99.90;;;;;;4199605;28;20662;-88
2022/05/06 09:40:01;;;;;;;43.63;21.27;;;26.10;99.90;;;;;;4199778;28;20265;-89
2022/05/06 09:42:04;;;;;;;52.17;20.80;;;25.50;99.90;;;;;;4182598;28;20183;-87
2022/05/06 09:44:06;;;;;;;32.22;17.65;;;25.50;99.90;;;;;;4217137;28;20174;-88
2022/05/06 09:46:20;;;;;;;29.23;15.13;;;24.90;99.90;;;;;;4218514;28;20174;-88
2022/05/06 09:48:20;;;;;;;35.08;18.30;;;23.30;99.90;;;;;;4216542;28;20292;-88
2022/05/06 09:50:34;;;;;;;34.05;17.17;;;22.40;99.90;;;;;;4200381;28;20171;-94
2022/05/06 09:52:35;;;;;;;38.92;18.70;;;22.80;99.90;;;;;;4199661;28;20181;-88
2022/05/06 09:54:36;;;;;;;33.60;16.38;;;22.40;99.90;;;;;;4200771;28;20190;-88
2022/05/06 09:56:39;;;;;;;34.78;15.98;;;22.60;99.90;;;;;;4200427;28;20678;-88
2022/05/06 09:58:40;;;;;;;33.78;16.70;;;22.90;99.90;;;;;;4201269;28;20194;-88
2022/05/06 10:00:41;;;;;;;35.33;17.05;;;23.10;99.90;;;;;;4216092;28;20244;-88
2022/05/06 10:02:42;;;;;;;33.90;16.92;;;23.90;99.90;;;;;;4198955;28;20217;-89
2022/05/06 10:04:43;;;;;;;35.72;17.52;;;24.50;99.90;;;;;;4182580;28;20176;-88
2022/05/06 10:06:44;;;;;;;30.95;15.98;;;24.60;99.90;;;;;;4184593;28;20199;-88
2022/05/06 10:08:49;;;;;;;30.63;15.80;;;24.20;99.90;;;;;;4200704;28;20261;-88
2022/05/06 10:10:59;;;;;;;30.42;14.63;;;22.60;99.90;;;;;;4184333;28;20195;-88
2022/05/06 10:13:06;;;;;;;27.27;14.75;;;23.70;99.90;;;;;;4217370;28;20161;-91
2022/05/06 10:15:19;;;;;;;31.98;16.85;;;23.70;99.90;;;;;;4222335;28;20534;-87
2022/05/06 10:17:57;;;;;;;31.90;15.80;;;23.10;99.90;;;;;;4224645;28;20170;-88
2022/05/06 10:19:58;;;;;;;31.88;15.10;;;22.80;99.90;;;;;;4215896;28;20198;-88
2022/05/06 10:21:58;;;;;;;26.60;13.95;;;22.80;99.90;;;;;;4184130;28;20190;-92
2022/05/06 10:24:14;;;;;;;25.52;14.40;;;22.20;99.90;;;;;;4206972;28;20174;-96
2022/05/06 10:26:33;;;;;;;27.08;15.27;;;22.20;99.90;;;;;;4223340;28;20224;-95
2022/05/06 10:33:14;;;;;;;31.27;14.30;;;20.20;99.90;;;;;;4205612;28;20173;-90
2022/05/06 10:35:15;;;;;;;28.17;14.68;;;20.10;99.90;;;;;;4203483;28;20182;-91
2022/05/06 10:37:16;;;;;;;27.30;14.93;;;20.10;99.90;;;;;;4191501;28;20183;-94
2022/05/06 10:39:32;;;;;;;27.15;14.07;;;20.50;99.90;;;;;;4187315;28;20195;-90
2022/05/06 10:41:33;;;;;;;30.10;14.73;;;20.50;99.90;;;;;;4203395;28;20225;-90
2022/05/06 10:43:39;;;;;;;29.27;15.00;;;20.30;99.90;;;;;;4206784;28;20174;-92
2022/05/06 10:45:46;;;;;;;29.92;14.80;;;20.60;99.90;;;;;;4184135;28;20171;-90
2022/05/06 10:47:48;;;;;;;27.90;13.65;;;20.90;99.90;;;;;;4204562;28;20201;-90
2022/05/06 10:49:52;;;;;;;27.17;13.25;;;20.60;99.90;;;;;;4205550;28;20618;-94
2022/05/06 10:52:13;;;;;;;31.15;13.88;;;19.90;99.90;;;;;;4187114;28;20167;-90
2022/05/06 10:54:14;;;;;;;30.67;14.50;;;20.00;99.90;;;;;;4220477;28;20581;-91
2022/05/06 10:56:19;;;;;;;28.13;14.45;;;20.40;99.90;;;;;;4205587;28;20198;-91
2022/05/06 10:58:19;;;;;;;23.80;11.85;;;20.40;99.90;;;;;;4209701;28;20166;-91
2022/05/06 11:00:22;;;;;;;26.90;14.05;;;20.00;99.90;;;;;;4184946;28;20168;-92
2022/05/06 11:02:25;;;;;;;23.10;12.00;;;20.50;99.90;;;;;;4188741;28;20167;-92
2022/05/06 11:04:26;;;;;;;25.95;12.50;;;20.70;99.90;;;;;;4204556;28;20169;-95